Time,TemperatureF,DewpointF,PressureIn,WindDirection,WindDirectionDegrees,WindSpeedMPH,WindSpeedGustMPH,Humidity,HourlyPrecipIn,Conditions,Clouds,dailyrainin,SoftwareType,DateUTC
2013-07-30 21:16:00,71.3,67.6,30.05,North,-999,-999.0,-999.0,87,-99.99,n/a,n/a,-99.99,Henriksen +1-Wire,2013-07-31 01:16:00,
2013-07-30 21:18:00,69.7,65.9,30.05,North,-999,-999.0,-999.0,87,-99.99,n/a,n/a,-99.99,Henriksen +1-Wire,2013-07-31 01:18:00,
2013-07-30 21:20:00,68.0,64.4,30.05,North,-999,-999.0,-999.0,88,-99.99,n/a,n/a,-99.99,Henriksen +1-Wire,2013-07-31 01:20:00,
2013-07-30 21:22:00,67.6,64.0,30.05,North,-999,-999.0,-999.0,87,-99.99,n/a,n/a,-99.99,Henriksen +1-Wire,2013-07-31 01:22:00,
2013-07-30 21:28:00,67.1,63.5,30.05,North,-999,-999.0,-999.0,88,-99.99,n/a,n/a,-99.99,Henriksen +1-Wire,2013-07-31 01:28:00,
2013-07-30 21:34:00,66.2,63.4,30.05,North,-999,-999.0,-999.0,90,-99.99,n/a,n/a,-99.99,Henriksen +1-Wire,2013-07-31 01:34:00,
2013-07-30 21:40:00,66.1,63.4,30.05,North,-999,-999.0,-999.0,91,-99.99,n/a,n/a,-99.99,Henriksen +1-Wire,2013-07-31 01:40:00,
2013-07-30 21:46:00,66.0,63.4,30.05,North,-999,-999.0,-999.0,91,-99.99,n/a,n/a,-99.99,Henriksen +1-Wire,2013-07-31 01:46:00,
2013-07-30 21:48:00,66.0,63.5,30.05,North,-999,-999.0,-999.0,91,-99.99,n/a,n/a,-99.99,Henriksen +1-Wire,2013-07-31 01:48:00,
2013-07-30 21:54:00,66.0,57.9,30.05,North,-999,-999.0,-999.0,74,-99.99,n/a,n/a,-99.99,Henriksen +1-Wire,2013-07-31 01:54:00,
2013-07-30 22:00:00,66.1,63.1,30.05,North,-999,-999.0,-999.0,89,-99.99,n/a,n/a,-99.99,Henriksen +1-Wire,2013-07-31 02:00:00,
2013-07-30 22:06:00,65.6,62.5,30.05,North,-999,-999.0,-999.0,89,-99.99,n/a,n/a,-99.99,Henriksen +1-Wire,2013-07-31 02:06:00,
2013-07-30 22:12:00,65.1,62.3,30.05,North,-999,-999.0,-999.0,90,-99.99,n/a,n/a,-99.99,Henriksen +1-Wire,2013-07-31 02:12:00,
2013-07-30 22:18:00,65.0,62.3,30.05,North,-999,-999.0,-999.0,90,-99.99,n/a,n/a,-99.99,Henriksen +1-Wire,2013-07-31 02:18:00,
2013-07-30 22:24:00,64.4,62.1,30.05,North,-999,-999.0,-999.0,92,-99.99,n/a,n/a,-99.99,Henriksen +1-Wire,2013-07-31 02:24:00,
2013-07-30 22:30:00,64.0,62.0,30.05,North,-999,-999.0,-999.0,93,-99.99,n/a,n/a,-99.99,Henriksen +1-Wire,2013-07-31 02:30:00,
2013-07-30 22:36:00,63.9,61.9,30.06,North,-999,-999.0,-999.0,92,-99.99,n/a,n/a,-99.99,Henriksen +1-Wire,2013-07-31 02:36:00,
2013-07-30 22:42:00,64.2,61.9,30.05,North,-999,-999.0,-999.0,92,-99.99,n/a,n/a,-99.99,Henriksen +1-Wire,2013-07-31 02:42:00,
2013-07-30 22:48:00,64.2,61.9,30.05,North,-999,-999.0,-999.0,91,-99.99,n/a,n/a,-99.99,Henriksen +1-Wire,2013-07-31 02:48:00,
2013-07-30 22:54:00,64.1,61.9,30.05,North,-999,-999.0,-999.0,92,-99.99,n/a,n/a,-99.99,Henriksen +1-Wire,2013-07-31 02:54:00,
2013-07-30 23:00:00,64.0,62.0,30.05,North,-999,-999.0,-999.0,93,-99.99,n/a,n/a,-99.99,Henriksen +1-Wire,2013-07-31 03:00:00,
2013-07-30 23:06:00,63.6,61.7,30.05,North,-999,-999.0,-999.0,93,-99.99,n/a,n/a,-99.99,Henriksen +1-Wire,2013-07-31 03:06:00,
2013-07-30 23:12:00,63.8,61.7,30.05,North,-999,-999.0,-999.0,92,-99.99,n/a,n/a,-99.99,Henriksen +1-Wire,2013-07-31 03:12:00,
2013-07-30 23:18:00,63.3,61.1,30.05,North,-999,-999.0,-999.0,92,-99.99,n/a,n/a,-99.99,Henriksen +1-Wire,2013-07-31 03:18:00,
2013-07-30 23:24:00,63.3,61.4,30.05,North,-999,-999.0,-999.0,93,-99.99,n/a,n/a,-99.99,Henriksen +1-Wire,2013-07-31 03:24:00,
2013-07-30 23:30:00,63.5,61.3,30.05,North,-999,-999.0,-999.0,92,-99.99,n/a,n/a,-99.99,Henriksen +1-Wire,2013-07-31 03:30:00,
2013-07-30 23:36:00,63.4,61.1,30.05,North,-999,-999.0,-999.0,92,-99.99,n/a,n/a,-99.99,Henriksen +1-Wire,2013-07-31 03:36:00,
2013-07-30 23:42:00,63.0,52.6,30.05,North,-999,-999.0,-999.0,68,-99.99,n/a,n/a,-99.99,Henriksen +1-Wire,2013-07-31 03:42:00,
2013-07-30 23:48:00,63.2,61.1,30.05,North,-999,-999.0,-999.0,92,-99.99,n/a,n/a,-99.99,Henriksen +1-Wire,2013-07-31 03:48:00,
2013-07-30 23:54:00,62.9,60.9,30.05,North,-999,-999.0,-999.0,93,-99.99,n/a,n/a,-99.99,Henriksen +1-Wire,2013-07-31 03:54:00,